Time;durP1;ratioP1;P1;durP2;ratioP2;P2;SDS_P1;SDS_P2;PMS_P1;PMS_P2;Temp;Humidity;BMP_temperature;BMP_pressure;BME280_temperature;BME280_humidity;BME280_pressure;Samples;Min_cycle;Max_cycle;Signal;HPM_P1;HPM_P2
2022/07/20 00:01:52;;;;;;;8.25;4.28;;;;;;;25.02;37.94;100299.56;5035750;28;20452;-70
2022/07/20 00:04:20;;;;;;;10.00;4.57;;;;;;;24.95;38.03;100293.09;5034857;28;20044;-71
2022/07/20 00:06:47;;;;;;;10.68;4.13;;;;;;;24.94;37.97;100303.09;5030682;28;20046;-70
2022/07/20 00:12:00;;;;;;;10.52;4.65;;;;;;;24.92;38.86;100296.09;5032159;28;20551;-70
2022/07/20 00:14:27;;;;;;;13.27;4.40;;;;;;;24.83;38.65;100282.56;5033768;28;20342;-71
2022/07/20 00:16:54;;;;;;;7.55;4.20;;;;;;;24.82;38.73;100294.41;5033030;28;20040;-70
2022/07/20 00:19:21;;;;;;;6.97;4.45;;;;;;;24.70;39.13;100301.16;5030396;28;20124;-72
2022/07/20 00:21:47;;;;;;;8.85;5.15;;;;;;;24.57;39.48;100295.34;5032603;28;20052;-71
2022/07/20 00:24:14;;;;;;;8.77;4.68;;;;;;;24.46;39.70;100299.19;5026114;28;20049;-71
2022/07/20 00:26:41;;;;;;;8.77;4.70;;;;;;;24.29;39.88;100283.91;5028795;28;20037;-71
2022/07/20 00:29:08;;;;;;;10.52;4.80;;;;;;;24.32;39.99;100301.69;5027040;28;20064;-71
2022/07/20 00:31:34;;;;;;;7.97;5.03;;;;;;;24.31;40.30;100310.81;5033627;28;20049;-71
2022/07/20 00:34:01;;;;;;;7.97;4.15;;;;;;;24.20;40.41;100292.13;5027011;28;20077;-70
2022/07/20 00:36:28;;;;;;;6.50;4.10;;;;;;;24.29;40.54;100307.41;5026341;28;20137;-70
2022/07/20 00:38:55;;;;;;;6.85;4.25;;;;;;;24.25;40.62;100300.63;5025791;28;20222;-70
2022/07/20 00:41:22;;;;;;;7.70;4.50;;;;;;;24.29;40.50;100302.00;5032475;28;20713;-70
2022/07/20 00:44:13;;;;;;;6.38;4.82;;;;;;;24.16;41.02;100302.41;5024084;28;20069;-71
2022/07/20 00:46:44;;;;;;;11.52;4.72;;;;;;;24.09;41.34;100312.16;5028325;28;20055;-71
2022/07/20 00:49:13;;;;;;;7.30;4.30;;;;;;;24.04;41.10;100307.28;5026834;28;20555;-71
2022/07/20 00:51:42;;;;;;;8.10;4.43;;;;;;;23.91;41.01;100285.22;5027633;28;20099;-70
2022/07/20 00:54:09;;;;;;;7.13;4.05;;;;;;;23.97;40.79;100302.66;5028850;28;20602;-71
2022/07/20 00:56:37;;;;;;;6.88;4.30;;;;;;;24.00;40.85;100307.75;5031706;28;20053;-70
2022/07/20 00:59:06;;;;;;;7.13;4.70;;;;;;;23.84;41.02;100270.63;5038215;28;20053;-70
2022/07/20 01:01:58;;;;;;;6.05;4.22;;;;;;;23.95;40.93;100302.81;5024675;28;20041;-70
2022/07/20 01:04:25;;;;;;;9.70;4.15;;;;;;;23.95;40.71;100304.66;5023119;28;20493;-71
2022/07/20 01:06:52;;;;;;;6.95;4.20;;;;;;;23.93;40.38;100304.81;5031326;28;20057;-71
2022/07/20 01:09:20;;;;;;;7.95;4.30;;;;;;;23.94;40.35;100298.41;5020055;28;20513;-72
2022/07/20 01:11:47;;;;;;;5.28;3.95;;;;;;;23.97;40.58;100308.91;5032541;28;20046;-70
2022/07/20 01:14:14;;;;;;;7.07;4.22;;;;;;;23.97;40.64;100299.94;5028245;28;20107;-72
2022/07/20 01:16:40;;;;;;;9.32;4.35;;;;;;;23.92;41.19;100295.03;5028910;28;20057;-70
2022/07/20 01:19:08;;;;;;;8.70;4.10;;;;;;;23.95;40.72;100297.38;5024776;28;20220;-71
2022/07/20 01:21:40;;;;;;;6.82;4.40;;;;;;;23.90;40.94;100297.03;5060788;28;20065;-70
2022/07/20 01:24:12;;;;;;;5.90;4.20;;;;;;;23.87;41.63;100301.91;5024141;28;20401;-71
2022/07/20 01:26:40;;;;;;;5.88;4.18;;;;;;;23.86;41.35;100294.81;5035912;28;20067;-71
2022/07/20 01:29:08;;;;;;;4.95;4.10;;;;;;;23.89;41.49;100305.31;5025894;28;20123;-70
2022/07/20 01:31:35;;;;;;;7.55;3.95;;;;;;;23.84;41.73;100303.06;5029518;28;20108;-71
2022/07/20 01:34:03;;;;;;;7.05;4.28;;;;;;;23.83;41.65;100300.53;5027633;28;20517;-71
2022/07/20 01:36:30;;;;;;;9.93;4.32;;;;;;;23.76;41.69;100303.03;5034688;28;20127;-71
2022/07/20 01:38:56;;;;;;;6.07;4.28;;;;;;;23.72;41.59;100294.41;5023927;28;20362;-71
2022/07/20 01:41:24;;;;;;;4.95;3.88;;;;;;;23.72;41.22;100294.41;5032556;28;20045;-71
2022/07/20 01:43:50;;;;;;;6.32;4.30;;;;;;;23.76;40.70;100301.19;5026284;28;20447;-71
2022/07/20 01:46:17;;;;;;;5.65;4.25;;;;;;;23.77;40.18;100300.16;5031841;28;20504;-70
2022/07/20 01:48:44;;;;;;;9.43;4.18;;;;;;;23.79;40.34;100310.81;5022816;28;20390;-70
2022/07/20 01:51:11;;;;;;;8.02;4.30;;;;;;;23.80;40.25;100301.69;5028094;28;20119;-70
2022/07/20 01:53:37;;;;;;;8.48;4.18;;;;;;;23.78;40.33;100301.84;5028394;28;20087;-71
2022/07/20 01:56:04;;;;;;;6.47;4.07;;;;;;;23.80;40.39;100301.69;5028217;28;20050;-71
2022/07/20 01:58:31;;;;;;;5.00;3.67;;;;;;;23.76;40.18;100298.47;5034164;28;20049;-71
2022/07/20 02:00:57;;;;;;;4.65;3.72;;;;;;;23.72;39.88;100294.41;5030693;28;20048;-71
2022/07/20 02:03:24;;;;;;;4.85;3.95;;;;;;;23.70;40.14;100285.59;5023452;28;20048;-71
2022/07/20 02:05:51;;;;;;;7.47;4.32;;;;;;;23.73;40.38;100292.53;5033520;28;20037;-71
2022/07/20 02:08:17;;;;;;;5.40;4.20;;;;;;;23.57;40.53;100287.03;5032393;28;20042;-71
2022/07/20 02:10:44;;;;;;;7.13;4.28;;;;;;;23.44;41.01;100280.16;5023421;28;20073;-71
2022/07/20 02:13:11;;;;;;;5.03;4.28;;;;;;;23.40;41.38;100286.88;5034417;28;20069;-71
2022/07/20 02:18:22;;;;;;;9.43;4.10;;;;;;;23.24;41.70;100288.59;5032261;28;20096;-70
2022/07/20 02:20:49;;;;;;;6.43;4.25;;;;;;;23.10;42.03;100281.88;5036521;28;20037;-70
2022/07/20 02:23:15;;;;;;;9.15;4.13;;;;;;;23.03;42.46;100292.44;5028651;28;20053;-71
2022/07/20 02:25:42;;;;;;;4.63;3.80;;;;;;;22.99;42.50;100290.19;5029866;28;20054;-70
2022/07/20 02:28:09;;;;;;;6.53;4.35;;;;;;;23.00;42.36;100297.28;5027446;28;20057;-71
2022/07/20 02:30:36;;;;;;;8.05;4.20;;;;;;;22.93;42.68;100302.47;5027619;28;20964;-71
2022/07/20 02:33:03;;;;;;;8.70;4.50;;;;;;;22.86;42.96;100297.84;5034539;28;20048;-70
2022/07/20 02:35:30;;;;;;;8.38;4.45;;;;;;;22.75;43.03;100294.31;5029007;28;20509;-70
2022/07/20 02:37:57;;;;;;;9.23;4.80;;;;;;;22.77;43.34;100299.59;5041813;28;20045;-70
2022/07/20 02:40:24;;;;;;;5.53;4.68;;;;;;;22.79;43.19;100299.47;5030598;28;20046;-70
2022/07/20 02:42:51;;;;;;;11.02;4.20;;;;;;;22.77;43.54;100291.50;5033306;28;20053;-71
2022/07/20 02:45:17;;;;;;;9.75;4.68;;;;;;;22.74;43.22;100297.19;5029096;28;20053;-72
2022/07/20 02:47:46;;;;;;;10.32;3.97;;;;;;;22.74;43.08;100295.31;5032652;28;20409;-70
2022/07/20 02:50:13;;;;;;;6.03;4.10;;;;;;;22.71;43.13;100294.78;5037069;28;20057;-70
2022/07/20 02:52:42;;;;;;;6.82;4.72;;;;;;;22.60;43.40;100301.25;5036436;28;20048;-71
2022/07/20 02:55:09;;;;;;;7.55;4.43;;;;;;;22.46;43.40;100282.03;5027951;28;20615;-71
2022/07/20 02:57:36;;;;;;;7.32;4.32;;;;;;;22.40;43.41;100267.28;5034269;28;20739;-72
2022/07/20 03:00:05;;;;;;;7.60;4.45;;;;;;;22.56;43.49;100302.53;5027926;28;20057;-71
2022/07/20 03:02:34;;;;;;;9.60;4.28;;;;;;;22.46;43.58;100280.16;5030846;28;20165;-71
2022/07/20 03:05:01;;;;;;;6.63;3.80;;;;;;;22.47;43.71;100298.06;5033928;28;20688;-71
2022/07/20 03:07:27;;;;;;;9.05;4.20;;;;;;;22.43;43.74;100290.41;5034285;28;20048;-71
2022/07/20 03:09:54;;;;;;;7.47;4.10;;;;;;;22.38;44.09;100289.00;5031249;28;20049;-71
2022/07/20 03:12:21;;;;;;;6.65;4.05;;;;;;;22.38;43.50;100293.53;5029430;28;20041;-71
2022/07/20 03:14:48;;;;;;;6.97;4.38;;;;;;;22.39;43.84;100292.56;5030601;28;20489;-71
2022/07/20 03:17:16;;;;;;;4.93;3.95;;;;;;;22.35;43.61;100280.38;5034106;28;20122;-72
2022/07/20 03:19:44;;;;;;;7.47;4.28;;;;;;;22.29;43.35;100280.97;5058052;28;20409;-71
2022/07/20 03:22:10;;;;;;;6.70;3.65;;;;;;;22.42;43.45;100291.41;5035553;28;20084;-71
2022/07/20 03:24:37;;;;;;;7.13;4.13;;;;;;;22.31;43.42;100273.59;5026538;28;20464;-71
2022/07/20 03:27:04;;;;;;;5.70;3.80;;;;;;;22.42;43.33;100286.00;5033110;28;20049;-71
2022/07/20 03:29:31;;;;;;;9.27;3.95;;;;;;;22.49;43.04;100290.66;5028407;28;20453;-71
2022/07/20 03:31:57;;;;;;;5.45;4.25;;;;;;;22.51;42.96;100291.34;5025484;28;20046;-71
2022/07/20 03:34:24;;;;;;;6.28;3.90;;;;;;;22.56;42.74;100299.00;5026919;28;20137;-71
2022/07/20 03:36:50;;;;;;;6.70;4.25;;;;;;;22.59;42.26;100299.53;5031048;28;20501;-72
2022/07/20 03:39:17;;;;;;;4.75;3.65;;;;;;;22.58;42.84;100300.53;5029264;28;20076;-70
2022/07/20 03:41:44;;;;;;;8.75;3.92;;;;;;;22.56;42.97;100297.13;5032434;28;20049;-71
2022/07/20 03:44:11;;;;;;;6.93;4.40;;;;;;;22.58;42.34;100297.00;5026325;28;20107;-70
2022/07/20 03:46:38;;;;;;;7.35;3.80;;;;;;;22.57;42.84;100306.09;5029667;28;20088;-71
2022/07/20 03:49:05;;;;;;;6.13;4.20;;;;;;;22.54;42.68;100304.53;5033687;28;20130;-71
2022/07/20 03:51:31;;;;;;;9.65;4.20;;;;;;;22.59;42.96;100309.50;5030264;28;20119;-70
2022/07/20 03:53:59;;;;;;;8.48;3.85;;;;;;;22.52;43.16;100300.28;5026775;28;20107;-71
2022/07/20 03:56:27;;;;;;;4.72;3.88;;;;;;;22.50;43.04;100313.97;5030291;28;20776;-71
2022/07/20 03:58:53;;;;;;;5.80;4.28;;;;;;;22.50;43.26;100315.81;5028696;28;20077;-71
2022/07/20 04:01:20;;;;;;;5.95;4.22;;;;;;;22.48;43.24;100313.25;5030228;28;20115;-71
2022/07/20 04:03:47;;;;;;;6.93;4.00;;;;;;;22.46;43.36;100309.84;5036687;28;20140;-71
2022/07/20 04:06:13;;;;;;;6.35;3.58;;;;;;;22.45;43.46;100318.94;5029716;28;20057;-71
2022/07/20 04:08:40;;;;;;;10.43;3.95;;;;;;;22.41;43.28;100312.13;5036853;28;20067;-71
2022/07/20 04:11:07;;;;;;;5.93;3.80;;;;;;;22.48;43.76;100317.81;5026560;28;20489;-71
2022/07/20 04:13:33;;;;;;;7.72;3.97;;;;;;;22.51;43.24;100318.31;5036495;28;20056;-71
2022/07/20 04:16:00;;;;;;;8.48;4.10;;;;;;;22.55;43.24;100321.56;5035638;28;20390;-71
2022/07/20 04:18:27;;;;;;;8.27;4.32;;;;;;;22.46;43.61;100288.25;5033467;28;20398;-71
2022/07/20 04:20:55;;;;;;;9.48;4.13;;;;;;;22.59;43.49;100320.28;5028457;28;20111;-71
2022/07/20 04:23:21;;;;;;;6.25;4.00;;;;;;;22.45;43.45;100297.34;5027865;28;20157;-71
2022/07/20 04:25:48;;;;;;;7.88;3.60;;;;;;;22.54;43.49;100309.09;5031895;28;20050;-71
2022/07/20 04:28:14;;;;;;;7.38;3.80;;;;;;;22.58;43.91;100314.03;5030659;28;20053;-72
2022/07/20 04:30:41;;;;;;;8.00;4.15;;;;;;;22.66;43.76;100326.78;5034951;28;20098;-71
2022/07/20 04:33:08;;;;;;;6.20;3.80;;;;;;;22.62;43.95;100315.44;5022083;28;20681;-72
2022/07/20 04:35:34;;;;;;;6.88;3.92;;;;;;;22.70;43.64;100318.22;5034327;28;20111;-71
2022/07/20 04:38:01;;;;;;;6.47;4.22;;;;;;;22.78;43.64;100313.97;5031890;28;20664;-71
2022/07/20 04:40:28;;;;;;;16.25;7.05;;;;;;;22.79;44.13;100323.75;5031161;28;20560;-71
2022/07/20 04:43:01;;;;;;;25.02;18.23;;;;;;;22.68;44.52;100314.81;5021958;28;20461;-72
2022/07/20 04:45:28;;;;;;;16.67;14.88;;;;;;;22.72;44.27;100340.50;5036115;28;20045;-72
2022/07/20 04:47:56;;;;;;;16.17;11.45;;;;;;;22.73;44.79;100349.47;5027296;28;20053;-72
2022/07/20 04:50:22;;;;;;;11.52;9.50;;;;;;;22.75;44.71;100344.78;5033450;28;20160;-72
2022/07/20 04:52:49;;;;;;;14.07;8.70;;;;;;;22.72;44.60;100332.41;5025931;28;20124;-72
2022/07/20 04:55:15;;;;;;;10.07;8.52;;;;;;;22.55;45.00;100295.44;5031899;28;20103;-71
2022/07/20 04:57:42;;;;;;;10.50;7.97;;;;;;;22.69;45.13;100304.88;5031319;28;20079;-73
2022/07/20 05:00:11;;;;;;;11.27;7.05;;;;;;;22.76;44.70;100305.97;5030900;28;20544;-71
2022/07/20 05:02:37;;;;;;;8.00;5.93;;;;;;;22.91;44.64;100323.38;5024255;28;20060;-72
2022/07/20 05:05:05;;;;;;;11.73;5.57;;;;;;;22.96;44.37;100331.88;5038109;28;20118;-71
2022/07/20 05:07:32;;;;;;;8.18;4.60;;;;;;;23.00;43.65;100335.09;5021460;28;20058;-71
2022/07/20 05:09:59;;;;;;;7.22;4.57;;;;;;;23.04;43.85;100328.41;5029167;28;20115;-72
2022/07/20 05:12:25;;;;;;;5.72;4.32;;;;;;;23.15;44.01;100336.25;5034913;28;20067;-70
2022/07/20 05:14:52;;;;;;;6.28;4.07;;;;;;;23.18;43.19;100337.81;5033625;28;20053;-71
2022/07/20 05:17:18;;;;;;;7.93;4.43;;;;;;;23.19;43.04;100334.13;5021408;28;20049;-70
2022/07/20 05:19:45;;;;;;;7.30;4.00;;;;;;;23.24;42.74;100331.81;5026064;28;20075;-71
2022/07/20 05:22:12;;;;;;;6.18;4.53;;;;;;;23.32;42.78;100337.28;5028241;28;20126;-71
2022/07/20 05:24:40;;;;;;;6.53;4.13;;;;;;;23.40;42.65;100331.94;5023902;28;20130;-71
2022/07/20 05:27:06;;;;;;;5.75;4.28;;;;;;;23.44;42.70;100334.19;5015745;28;20425;-71
2022/07/20 05:29:33;;;;;;;7.78;4.60;;;;;;;23.55;42.60;100333.13;5010374;28;20057;-74
2022/07/20 05:32:00;;;;;;;5.82;4.15;;;;;;;23.49;44.29;100322.03;5015712;28;20568;-73
2022/07/20 05:34:26;;;;;;;10.82;4.15;;;;;;;23.59;42.96;100341.78;5014803;28;20119;-72
2022/07/20 05:36:53;;;;;;;9.15;3.75;;;;;;;23.58;43.03;100334.66;5014679;28;20131;-72
2022/07/20 05:39:20;;;;;;;10.90;4.18;;;;;;;23.71;42.57;100340.50;5014719;28;20153;-71
2022/07/20 05:41:47;;;;;;;7.57;4.18;;;;;;;23.81;42.83;100335.84;5016565;28;20053;-72
2022/07/20 05:44:14;;;;;;;11.10;4.30;;;;;;;23.93;42.29;100337.25;5014330;28;20058;-72
2022/07/20 05:46:41;;;;;;;9.68;4.20;;;;;;;24.00;42.23;100329.38;5017653;28;20058;-71
2022/07/20 05:49:08;;;;;;;7.65;3.95;;;;;;;24.17;41.81;100328.47;5021071;28;20049;-72
2022/07/20 05:51:35;;;;;;;9.63;3.90;;;;;;;24.37;40.82;100338.09;5019022;28;20080;-72
2022/07/20 05:54:02;;;;;;;7.07;3.83;;;;;;;24.50;40.65;100340.34;5023280;28;20052;-71
2022/07/20 05:56:29;;;;;;;11.30;4.05;;;;;;;24.60;40.59;100343.75;5022040;28;20069;-71
2022/07/20 05:58:55;;;;;;;6.55;3.80;;;;;;;24.63;40.13;100321.75;5017629;28;20080;-71
2022/07/20 06:01:22;;;;;;;10.27;4.60;;;;;;;24.87;40.33;100336.41;5019618;28;20050;-71
2022/07/20 06:03:48;;;;;;;6.05;3.88;;;;;;;25.02;40.43;100338.34;5018041;28;20135;-71
2022/07/20 06:06:15;;;;;;;9.52;3.83;;;;;;;25.17;39.07;100350.22;5021898;28;20053;-71
2022/07/20 06:08:42;;;;;;;7.07;3.50;;;;;;;25.34;38.50;100342.09;5023686;28;20049;-72
2022/07/20 06:11:28;;;;;;;8.07;3.17;;;;;;;25.63;37.25;100352.47;5022083;28;20491;-72
2022/07/20 06:13:55;;;;;;;10.40;3.45;;;;;;;25.88;36.44;100347.88;5019014;28;20100;-71
2022/07/20 06:16:22;;;;;;;9.00;3.60;;;;;;;26.20;35.61;100348.66;5019807;28;20155;-71
2022/07/20 06:18:48;;;;;;;7.05;3.67;;;;;;;26.58;34.50;100354.31;5018236;28;20038;-71
2022/07/20 06:21:16;;;;;;;8.75;3.42;;;;;;;26.88;33.74;100350.78;5017898;28;20045;-71
2022/07/20 06:23:42;;;;;;;5.53;3.70;;;;;;;27.03;33.94;100325.59;5019585;28;20053;-72
2022/07/20 06:26:09;;;;;;;9.38;3.72;;;;;;;27.45;32.45;100342.25;5024141;28;20141;-71
2022/07/20 06:28:36;;;;;;;7.93;3.60;;;;;;;27.88;32.28;100350.75;5015010;28;20057;-71
2022/07/20 06:31:04;;;;;;;6.07;3.10;;;;;;;28.32;31.62;100350.84;5019796;28;20117;-70
2022/07/20 06:33:30;;;;;;;6.22;3.50;;;;;;;28.76;30.55;100348.06;5019343;28;20130;-71
2022/07/20 06:35:57;;;;;;;6.13;3.20;;;;;;;29.16;30.66;100354.00;5017541;28;20525;-72
2022/07/20 06:38:24;;;;;;;5.80;3.25;;;;;;;29.56;29.46;100345.22;5018324;28;20049;-70
2022/07/20 06:40:51;;;;;;;9.73;3.90;;;;;;;30.02;29.05;100347.50;5016998;28;20041;-72
2022/07/20 06:43:22;;;;;;;8.53;3.40;;;;;;;30.35;28.72;100345.84;5018587;28;20061;-71
2022/07/20 06:45:51;;;;;;;9.38;3.63;;;;;;;30.58;28.99;100355.63;5026538;28;20480;-73
2022/07/20 06:48:19;;;;;;;6.60;3.83;;;;;;;30.81;27.79;100345.25;5032187;28;20077;-71
2022/07/20 06:50:48;;;;;;;9.50;3.95;;;;;;;31.09;28.00;100336.91;5019717;28;20105;-71
2022/07/20 06:53:15;;;;;;;10.00;3.42;;;;;;;31.37;27.26;100345.81;5024324;28;20487;-71
2022/07/20 06:55:43;;;;;;;7.10;3.35;;;;;;;31.56;28.84;100343.31;5031157;28;20101;-71
2022/07/20 06:58:10;;;;;;;8.82;3.40;;;;;;;31.75;26.78;100341.69;5034153;28;20127;-71
2022/07/20 07:00:37;;;;;;;8.98;3.30;;;;;;;31.81;27.27;100327.13;5031483;28;20127;-72
2022/07/20 07:03:04;;;;;;;13.13;3.50;;;;;;;32.05;26.39;100330.06;5031519;28;20187;-71
2022/07/20 07:05:30;;;;;;;6.40;3.38;;;;;;;32.22;26.17;100335.13;5029071;28;20057;-72
2022/07/20 07:07:57;;;;;;;6.25;3.88;;;;;;;32.36;26.81;100343.09;5034511;28;20131;-71
2022/07/20 07:10:25;;;;;;;7.75;3.05;;;;;;;32.40;27.49;100341.59;5033146;28;20057;-71
2022/07/20 07:12:52;;;;;;;5.78;3.55;;;;;;;32.29;26.60;100344.16;5032381;28;20069;-71
2022/07/20 07:15:19;;;;;;;6.70;3.45;;;;;;;32.32;27.02;100333.59;5037980;28;20506;-71
2022/07/20 07:17:45;;;;;;;5.82;3.80;;;;;;;32.47;27.35;100346.22;5034340;28;20045;-73
2022/07/20 07:20:12;;;;;;;6.03;3.90;;;;;;;32.33;26.28;100339.94;5036461;28;20875;-71
2022/07/20 07:22:39;;;;;;;10.13;3.90;;;;;;;32.40;26.41;100341.59;5029477;28;20508;-72
2022/07/20 07:25:06;;;;;;;8.52;3.83;;;;;;;32.50;26.11;100345.78;5038612;28;20353;-71
2022/07/20 07:27:33;;;;;;;10.30;3.67;;;;;;;32.71;26.51;100340.03;5032123;28;20073;-73
2022/07/20 07:30:00;;;;;;;7.85;3.88;;;;;;;32.91;27.11;100343.53;5039818;28;20513;-71
2022/07/20 07:32:26;;;;;;;7.30;3.45;;;;;;;33.13;26.30;100327.59;5044557;28;20060;-71
2022/07/20 07:34:53;;;;;;;7.82;3.50;;;;;;;33.09;25.35;100332.66;5031799;28;20422;-71
2022/07/20 07:37:20;;;;;;;6.55;3.40;;;;;;;33.12;25.96;100336.88;5027225;28;20044;-71
2022/07/20 07:39:47;;;;;;;7.13;3.78;;;;;;;33.18;26.50;100349.72;5036994;28;20056;-71
2022/07/20 07:42:13;;;;;;;9.80;3.33;;;;;;;33.25;26.25;100347.78;5025921;28;20107;-71
2022/07/20 07:44:40;;;;;;;6.78;3.25;;;;;;;33.29;25.45;100351.78;5032940;28;20052;-71
2022/07/20 07:47:06;;;;;;;8.88;3.50;;;;;;;33.36;25.29;100327.91;5027004;28;20111;-70
2022/07/20 07:49:33;;;;;;;5.10;3.10;;;;;;;33.55;26.94;100347.16;5029804;28;20073;-71
2022/07/20 07:52:00;;;;;;;6.68;3.30;;;;;;;33.59;24.77;100345.66;5033225;28;20117;-70
2022/07/20 07:54:27;;;;;;;5.28;3.47;;;;;;;33.47;25.22;100325.50;5034850;28;20054;-70
2022/07/20 07:56:53;;;;;;;8.98;3.40;;;;;;;33.73;25.00;100339.84;5034478;28;20049;-72
2022/07/20 07:59:20;;;;;;;6.72;3.35;;;;;;;33.89;24.91;100334.88;5030042;28;20045;-70
2022/07/20 08:02:03;;;;;;;9.10;3.67;;;;;;;34.06;24.87;100320.31;5026218;28;20057;-71
2022/07/20 08:04:30;;;;;;;5.63;2.92;;;;;;;34.17;24.58;100315.97;5028933;28;20053;-72
2022/07/20 08:06:56;;;;;;;6.07;3.20;;;;;;;34.36;25.05;100328.69;5032246;28;20075;-71
2022/07/20 08:09:23;;;;;;;6.85;3.17;;;;;;;34.38;24.38;100333.97;5024053;28;20064;-70
2022/07/20 08:11:49;;;;;;;7.10;3.83;;;;;;;34.31;24.35;100331.31;5036083;28;20052;-71
2022/07/20 08:14:16;;;;;;;5.93;3.17;;;;;;;34.40;25.27;100340.94;5028124;28;20103;-70
2022/07/20 08:16:43;;;;;;;8.50;2.90;;;;;;;34.64;24.17;100338.31;5026880;28;20057;-71
2022/07/20 08:19:10;;;;;;;8.15;3.60;;;;;;;34.93;24.04;100329.31;5032915;28;20336;-71
2022/07/20 08:21:37;;;;;;;5.65;3.22;;;;;;;35.21;24.19;100330.59;5018094;28;20576;-70
2022/07/20 08:24:04;;;;;;;6.68;3.13;;;;;;;35.29;23.87;100331.13;5032673;28;20067;-70
2022/07/20 08:26:31;;;;;;;7.97;3.53;;;;;;;35.40;23.73;100326.72;5018412;28;20100;-70
2022/07/20 08:28:58;;;;;;;6.97;3.70;;;;;;;35.51;23.82;100337.75;5009541;28;20083;-72
2022/07/20 08:31:25;;;;;;;4.80;3.38;;;;;;;35.54;22.97;100333.69;5021845;28;20774;-74
2022/07/20 08:33:51;;;;;;;7.07;3.60;;;;;;;35.61;23.12;100334.41;5026668;28;20077;-72
2022/07/20 08:36:19;;;;;;;5.70;3.25;;;;;;;35.39;22.63;100316.78;5012262;28;20056;-73
2022/07/20 08:38:46;;;;;;;8.07;3.30;;;;;;;35.20;23.12;100331.66;5023179;28;20045;-74
2022/07/20 08:41:14;;;;;;;6.85;3.10;;;;;;;34.79;23.86;100292.84;5019510;28;20053;-73
2022/07/20 08:43:42;;;;;;;6.37;3.10;;;;;;;34.78;24.15;100326.97;5020986;28;20061;-75
2022/07/20 08:46:10;;;;;;;4.88;3.13;;;;;;;34.77;23.88;100324.44;5021180;28;20057;-74
2022/07/20 08:48:41;;;;;;;5.25;3.22;;;;;;;34.30;24.69;100315.88;5020957;28;20381;-73
2022/07/20 08:51:08;;;;;;;9.15;3.20;;;;;;;34.14;25.72;100330.19;5018926;28;20049;-73
2022/07/20 08:53:35;;;;;;;6.00;3.22;;;;;;;34.33;25.72;100331.06;5018933;28;20111;-74
2022/07/20 08:56:08;;;;;;;6.88;3.40;;;;;;;34.28;24.87;100330.94;5019769;28;20535;-75
2022/07/20 08:58:35;;;;;;;7.90;3.20;;;;;;;34.24;24.70;100322.25;5019618;28;20112;-73
2022/07/20 09:01:01;;;;;;;5.85;3.40;;;;;;;34.47;24.78;100333.41;5019662;28;20073;-72
2022/07/20 09:03:28;;;;;;;5.78;3.72;;;;;;;34.46;25.29;100330.94;5021622;28;20061;-74
2022/07/20 09:06:06;;;;;;;6.65;3.83;;;;;;;34.08;24.57;100314.59;5018045;28;20172;-74
2022/07/20 09:08:34;;;;;;;6.70;3.50;;;;;;;33.41;25.27;100338.19;5020217;28;20065;-73
2022/07/20 09:11:02;;;;;;;5.47;3.30;;;;;;;33.32;25.36;100347.75;5019856;28;20052;-74
2022/07/20 09:13:30;;;;;;;7.47;3.70;;;;;;;33.36;25.64;100349.00;5022684;28;20146;-75
2022/07/20 09:15:59;;;;;;;3.65;3.25;;;;;;;33.53;25.54;100343.81;5017980;28;20053;-72
2022/07/20 09:18:31;;;;;;;9.38;3.97;;;;;;;33.79;25.24;100336.22;5021382;28;20063;-72
2022/07/20 09:21:05;;;;;;;7.47;3.70;;;;;;;33.88;24.98;100344.16;5012360;28;20134;-73
2022/07/20 09:23:42;;;;;;;7.40;3.60;;;;;;;33.71;25.22;100333.72;5018313;28;20950;-71
2022/07/20 09:26:12;;;;;;;7.82;4.25;;;;;;;33.73;25.47;100342.56;5013884;28;20046;-72
2022/07/20 09:28:50;;;;;;;7.07;3.75;;;;;;;33.48;25.14;100317.03;5018867;28;20050;-74
2022/07/20 09:31:28;;;;;;;6.40;3.63;;;;;;;33.48;25.54;100329.91;5022113;28;20136;-73
2022/07/20 09:34:00;;;;;;;5.78;3.85;;;;;;;33.56;25.42;100337.88;5018573;28;20075;-74
2022/07/20 09:36:33;;;;;;;8.38;3.88;;;;;;;33.38;25.75;100333.13;5019255;28;20553;-73
2022/07/20 09:39:14;;;;;;;6.78;3.67;;;;;;;33.55;25.64;100360.88;5019271;28;20055;-74
2022/07/20 09:41:44;;;;;;;9.85;3.90;;;;;;;33.54;25.60;100360.03;5014751;28;20054;-76
2022/07/20 09:44:19;;;;;;;;;;;;;;;33.47;24.91;100353.78;5020470;28;20075;-74
2022/07/20 09:46:46;;;;;;;6.25;4.20;;;;;;;33.39;25.71;100346.63;5015998;28;19937;-72
2022/07/20 09:49:13;;;;;;;8.70;4.03;;;;;;;33.30;25.29;100353.47;5020256;28;20575;-72
2022/07/20 09:51:44;;;;;;;9.47;4.20;;;;;;;33.29;25.43;100323.50;5019839;28;20073;-73
2022/07/20 09:54:15;;;;;;;;;;;;;;;33.50;25.37;100345.09;5019833;28;20076;-74
2022/07/20 09:56:50;;;;;;;7.35;4.10;;;;;;;33.59;25.30;100342.91;5018202;28;19953;-72
2022/07/20 09:59:18;;;;;;;6.50;4.97;;;;;;;33.71;25.48;100343.88;5020329;28;20053;-72
2022/07/20 10:01:50;;;;;;;6.13;3.78;;;;;;;33.65;25.24;100344.78;5021458;28;20401;-74
2022/07/20 10:04:18;;;;;;;6.55;4.00;;;;;;;33.55;25.11;100337.03;5020063;28;20530;-72
2022/07/20 10:06:51;;;;;;;8.85;4.15;;;;;;;33.44;25.77;100330.34;5017865;28;20363;-74
2022/07/20 10:09:18;;;;;;;7.65;3.92;;;;;;;33.41;25.78;100322.56;5016543;28;20112;-73
2022/07/20 10:11:45;;;;;;;9.15;4.30;;;;;;;33.42;26.01;100323.41;5016722;28;20506;-73
2022/07/20 10:14:17;;;;;;;10.13;4.70;;;;;;;33.42;25.33;100302.28;5018519;28;20050;-73
2022/07/20 10:16:53;;;;;;;7.60;3.97;;;;;;;33.59;25.35;100321.78;5015179;28;20130;-75
2022/07/20 10:19:39;;;;;;;7.32;4.07;;;;;;;33.67;25.00;100321.53;5016903;28;20341;-73
2022/07/20 10:22:08;;;;;;;10.43;4.18;;;;;;;33.60;24.98;100320.72;5020025;28;20156;-73
2022/07/20 10:24:37;;;;;;;10.88;7.10;;;;;;;33.66;25.14;100319.84;5016872;28;20041;-72
2022/07/20 10:27:11;;;;;;;7.88;4.35;;;;;;;33.55;24.77;100325.19;5019337;28;20127;-73
2022/07/20 10:29:41;;;;;;;7.05;4.40;;;;;;;33.59;25.14;100315.47;5021398;28;20099;-73
2022/07/20 10:32:16;;;;;;;5.72;4.20;;;;;;;33.64;24.93;100313.72;5022482;28;20053;-74
2022/07/20 10:34:46;;;;;;;5.88;4.38;;;;;;;33.79;24.55;100313.41;5019136;28;20060;-74
2022/07/20 10:37:27;;;;;;;7.05;4.00;;;;;;;34.00;24.20;100306.69;5023014;28;20061;-72
2022/07/20 10:40:12;;;;;;;6.70;4.40;;;;;;;34.26;24.53;100309.13;5022367;28;20140;-73
2022/07/20 10:42:46;;;;;;;7.13;3.90;;;;;;;34.37;24.13;100291.06;5023944;28;20056;-72
2022/07/20 10:45:27;;;;;;;6.20;4.95;;;;;;;34.64;23.79;100302.56;5024761;28;20061;-71
2022/07/20 10:48:12;;;;;;;6.53;4.32;;;;;;;34.66;23.30;100315.00;5027446;28;20140;-73
2022/07/20 10:50:41;;;;;;;7.07;4.55;;;;;;;34.44;23.81;100313.81;5023061;28;20045;-73
2022/07/20 10:53:11;;;;;;;10.00;4.50;;;;;;;34.34;23.96;100314.34;5014709;28;20124;-72
2022/07/20 10:55:38;;;;;;;7.30;4.20;;;;;;;34.33;23.50;100315.41;5023721;28;20485;-72
2022/07/20 10:58:06;;;;;;;6.18;4.13;;;;;;;34.27;24.10;100313.59;5021829;28;20041;-71
2022/07/20 11:00:45;;;;;;;6.60;4.45;;;;;;;34.43;23.83;100314.88;5022567;28;20505;-71
2022/07/20 11:03:27;;;;;;;8.43;4.28;;;;;;;34.48;23.22;100287.53;5021200;28;20481;-71
2022/07/20 11:06:16;;;;;;;9.02;4.60;;;;;;;34.73;23.47;100309.44;5021222;28;20103;-70
2022/07/20 11:08:54;;;;;;;9.13;4.80;;;;;;;34.91;23.12;100312.19;5020946;28;20249;-72
2022/07/20 11:11:28;;;;;;;10.98;4.78;;;;;;;35.10;22.62;100305.53;5019940;28;20479;-72
2022/07/20 11:13:56;;;;;;;6.80;4.70;;;;;;;35.17;22.80;100298.03;5023044;28;20045;-73
2022/07/20 11:16:24;;;;;;;6.75;4.18;;;;;;;35.35;22.53;100297.16;5021756;28;20069;-74
2022/07/20 11:18:52;;;;;;;5.80;4.63;;;;;;;35.48;22.31;100296.09;5020306;28;20056;-71
2022/07/20 11:21:40;;;;;;;6.45;4.60;;;;;;;35.68;22.40;100290.25;5018538;28;20099;-75
2022/07/20 11:24:24;;;;;;;7.72;4.20;;;;;;;35.85;21.73;100281.06;5013450;28;20049;-70
2022/07/20 11:26:52;;;;;;;14.48;5.43;;;;;;;35.83;21.80;100276.88;5020958;28;20525;-75
2022/07/20 11:29:22;;;;;;;7.50;4.28;;;;;;;35.90;21.94;100268.44;5027851;28;20547;-71
2022/07/20 11:31:49;;;;;;;7.57;4.38;;;;;;;35.88;21.52;100263.22;5026151;28;20041;-76
2022/07/20 11:34:16;;;;;;;7.13;4.47;;;;;;;35.93;20.45;100259.72;5024210;28;20045;-73
2022/07/20 11:36:42;;;;;;;7.90;4.38;;;;;;;36.02;20.73;100259.13;5025469;28;20088;-73